Time;durP1;ratioP1;P1;durP2;ratioP2;P2;SDS_P1;SDS_P2;PMS_P1;PMS_P2;Temp;Humidity;BMP_temperature;BMP_pressure;BME280_temperature;BME280_humidity;BME280_pressure;Samples;Min_cycle;Max_cycle;Signal;HPM_P1;HPM_P2
2022/09/28 00:01:50;;;;;;;0.00;0.00;;;;;;;;;;5060420;28;20489;-75
2022/09/28 00:04:16;;;;;;;0.10;0.10;;;;;;;;;;5046243;28;20483;-75
2022/09/28 00:06:43;;;;;;;0.10;0.10;;;;;;;;;;5058789;28;20969;-75
2022/09/28 00:09:09;;;;;;;0.10;0.10;;;;;;;;;;5061519;28;20771;-75
2022/09/28 00:11:36;;;;;;;0.00;0.00;;;;;;;;;;5053831;28;21046;-75
2022/09/28 00:14:02;;;;;;;0.10;0.10;;;;;;;;;;5052821;28;20988;-75
2022/09/28 00:16:32;;;;;;;0.50;0.30;;;;;;;;;;5060720;28;20425;-75
2022/09/28 00:18:59;;;;;;;0.00;0.00;;;;;;;;;;5034154;28;20775;-75
2022/09/28 00:21:27;;;;;;;0.20;0.20;;;;;;;;;;5049671;28;20440;-75
2022/09/28 00:26:41;;;;;;;0.10;0.10;;;;;;;;;;5056289;28;20428;-75
2022/09/28 00:29:07;;;;;;;0.00;0.00;;;;;;;;;;5058633;28;20832;-75
2022/09/28 00:31:34;;;;;;;0.15;0.15;;;;;;;;;;5052037;28;20423;-75
2022/09/28 00:34:01;;;;;;;0.10;0.10;;;;;;;;;;5057107;28;20420;-75
2022/09/28 00:36:28;;;;;;;0.10;0.10;;;;;;;;;;5059339;28;20421;-75
2022/09/28 00:38:55;;;;;;;0.10;0.10;;;;;;;;;;5059337;28;20482;-75
2022/09/28 00:41:22;;;;;;;0.00;0.00;;;;;;;;;;5054235;28;20420;-76
2022/09/28 00:43:48;;;;;;;0.10;0.10;;;;;;;;;;5053562;28;20425;-75
2022/09/28 00:46:14;;;;;;;0.03;0.03;;;;;;;;;;5038114;28;20470;-75
2022/09/28 00:48:43;;;;;;;0.03;0.03;;;;;;;;;;5059327;28;20868;-75
2022/09/28 00:51:12;;;;;;;0.00;0.00;;;;;;;;;;5035720;28;20431;-75
2022/09/28 00:53:39;;;;;;;0.10;0.10;;;;;;;;;;5052240;28;20420;-75
2022/09/28 00:56:08;;;;;;;0.00;0.00;;;;;;;;;;5056503;28;20432;-75
2022/09/28 00:58:36;;;;;;;0.05;0.05;;;;;;;;;;5059724;28;20786;-75
2022/09/28 01:01:02;;;;;;;0.00;0.00;;;;;;;;;;5053821;28;20448;-75
2022/09/28 01:03:29;;;;;;;0.08;0.08;;;;;;;;;;5058457;28;20471;-75
2022/09/28 01:05:57;;;;;;;0.10;0.10;;;;;;;;;;5057318;28;20520;-75
2022/09/28 01:08:26;;;;;;;0.00;0.00;;;;;;;;;;5059701;28;20428;-75
2022/09/28 01:10:52;;;;;;;0.20;0.20;;;;;;;;;;5043136;28;20431;-75
2022/09/28 01:13:19;;;;;;;0.05;0.05;;;;;;;;;;5040253;28;20420;-75
2022/09/28 01:16:01;;;;;;;0.20;0.20;;;;;;;;;;5050491;28;20425;-75
2022/09/28 01:18:36;;;;;;;0.10;0.10;;;;;;;;;;5051650;28;20456;-75
2022/09/28 01:21:09;;;;;;;0.10;0.10;;;;;;;;;;5041721;28;20424;-75
2022/09/28 01:23:41;;;;;;;0.10;0.10;;;;;;;;;;5056520;28;20423;-75
2022/09/28 01:26:26;;;;;;;0.10;0.10;;;;;;;;;;5049807;28;20432;-75
2022/09/28 01:28:54;;;;;;;0.00;0.00;;;;;;;;;;5055821;28;20414;-75
2022/09/28 01:31:22;;;;;;;0.10;0.10;;;;;;;;;;5058615;28;20427;-75
2022/09/28 01:33:55;;;;;;;0.10;0.10;;;;;;;;;;5053200;28;20762;-75
2022/09/28 01:36:26;;;;;;;0.10;0.10;;;;;;;;;;5050051;28;20470;-75
2022/09/28 01:38:55;;;;;;;0.00;0.00;;;;;;;;;;5034051;28;20949;-75
2022/09/28 01:41:23;;;;;;;0.00;0.00;;;;;;;;;;5058025;28;20486;-75
2022/09/28 01:43:53;;;;;;;0.00;0.00;;;;;;;;;;5036730;28;20470;-75
2022/09/28 01:46:21;;;;;;;0.10;0.10;;;;;;;;;;5055263;28;20456;-75
2022/09/28 01:48:51;;;;;;;0.90;0.60;;;;;;;;;;5038774;28;20435;-75
2022/09/28 01:51:27;;;;;;;0.10;0.10;;;;;;;;;;5056469;28;20786;-75
2022/09/28 01:53:55;;;;;;;0.00;0.00;;;;;;;;;;5053057;28;20421;-75
2022/09/28 01:56:24;;;;;;;0.00;0.00;;;;;;;;;;5052047;28;20482;-75
2022/09/28 01:58:54;;;;;;;0.00;0.00;;;;;;;;;;5053986;28;20451;-75
2022/09/28 02:01:26;;;;;;;0.00;0.00;;;;;;;;;;5057548;28;20425;-75
2022/09/28 02:03:56;;;;;;;0.00;0.00;;;;;;;;;;5038717;28;20430;-75
2022/09/28 02:06:26;;;;;;;0.40;0.40;;;;;;;;;;5053296;28;20516;-75
2022/09/28 02:08:58;;;;;;;0.20;0.20;;;;;;;;;;5049382;28;20447;-75
2022/09/28 02:11:24;;;;;;;0.10;0.10;;;;;;;;;;5060258;28;20441;-76
2022/09/28 02:13:50;;;;;;;0.00;0.00;;;;;;;;;;5055801;28;20925;-75
2022/09/28 02:16:22;;;;;;;0.10;0.10;;;;;;;;;;5053133;28;20512;-75
2022/09/28 02:18:48;;;;;;;0.00;0.00;;;;;;;;;;5036506;28;20753;-75
2022/09/28 02:21:17;;;;;;;0.10;0.10;;;;;;;;;;5057821;28;20427;-75
2022/09/28 02:23:48;;;;;;;0.10;0.10;;;;;;;;;;5052437;28;20425;-75
2022/09/28 02:26:17;;;;;;;0.10;0.10;;;;;;;;;;5050205;28;20427;-75
2022/09/28 02:28:43;;;;;;;0.00;0.00;;;;;;;;;;5034865;28;20800;-75
2022/09/28 02:31:10;;;;;;;0.00;0.00;;;;;;;;;;5053440;28;20431;-75
2022/09/28 02:33:36;;;;;;;0.10;0.10;;;;;;;;;;5053283;28;20423;-75
2022/09/28 02:36:03;;;;;;;0.00;0.00;;;;;;;;;;5055145;28;20832;-75
2022/09/28 02:38:30;;;;;;;0.10;0.10;;;;;;;;;;5053996;28;20414;-75
2022/09/28 02:41:04;;;;;;;0.10;0.10;;;;;;;;;;5052091;28;20436;-75
2022/09/28 02:43:49;;;;;;;0.00;0.00;;;;;;;;;;5047067;28;20458;-75
2022/09/28 02:46:21;;;;;;;0.10;0.10;;;;;;;;;;5055306;28;20488;-75
2022/09/28 02:49:06;;;;;;;0.10;0.10;;;;;;;;;;5038930;28;20469;-75
2022/09/28 02:51:35;;;;;;;0.00;0.00;;;;;;;;;;5053795;28;20427;-75
2022/09/28 02:54:19;;;;;;;0.10;0.10;;;;;;;;;;5051933;28;20439;-75
2022/09/28 02:56:45;;;;;;;0.10;0.10;;;;;;;;;;5038651;28;20947;-75
2022/09/28 02:59:30;;;;;;;0.00;0.00;;;;;;;;;;5052443;28;20437;-75
2022/09/28 03:02:11;;;;;;;0.10;0.10;;;;;;;;;;5058271;28;20428;-75
2022/09/28 03:04:53;;;;;;;0.10;0.10;;;;;;;;;;5038591;28;20791;-75
2022/09/28 03:07:26;;;;;;;0.00;0.00;;;;;;;;;;5062590;28;20564;-76
2022/09/28 03:10:05;;;;;;;0.00;0.00;;;;;;;;;;5062059;28;20431;-75
2022/09/28 03:12:32;;;;;;;0.10;0.10;;;;;;;;;;5056746;28;20434;-75
2022/09/28 03:15:07;;;;;;;0.00;0.00;;;;;;;;;;5054599;28;20425;-75
2022/09/28 03:17:33;;;;;;;0.10;0.10;;;;;;;;;;5060450;28;20525;-75
2022/09/28 03:19:59;;;;;;;0.00;0.00;;;;;;;;;;5061388;28;20426;-75
2022/09/28 03:22:25;;;;;;;0.10;0.10;;;;;;;;;;5061146;28;20417;-75
2022/09/28 03:24:51;;;;;;;0.00;0.00;;;;;;;;;;5040844;28;20516;-75
2022/09/28 03:27:17;;;;;;;0.10;0.10;;;;;;;;;;5043620;28;20431;-75
2022/09/28 03:29:43;;;;;;;0.10;0.10;;;;;;;;;;5059199;28;20774;-75
2022/09/28 03:32:09;;;;;;;0.03;0.03;;;;;;;;;;5041305;28;20834;-75
2022/09/28 03:34:35;;;;;;;0.00;0.00;;;;;;;;;;5057646;28;20970;-75
2022/09/28 03:37:01;;;;;;;0.00;0.00;;;;;;;;;;5041717;28;20498;-75
2022/09/28 03:39:27;;;;;;;0.10;0.10;;;;;;;;;;5059556;28;20451;-75
2022/09/28 03:41:54;;;;;;;0.10;0.10;;;;;;;;;;5051891;28;20484;-75
2022/09/28 03:44:20;;;;;;;0.00;0.00;;;;;;;;;;5058146;28;20437;-75
2022/09/28 03:46:46;;;;;;;0.10;0.10;;;;;;;;;;5053329;28;21128;-75
2022/09/28 03:49:12;;;;;;;0.90;0.20;;;;;;;;;;5063342;28;20434;-74
2022/09/28 03:51:38;;;;;;;0.10;0.10;;;;;;;;;;5058310;28;20459;-75
2022/09/28 03:54:04;;;;;;;0.10;0.10;;;;;;;;;;5058317;28;20419;-75
2022/09/28 03:56:30;;;;;;;0.08;0.08;;;;;;;;;;5061032;28;20443;-74
2022/09/28 03:58:56;;;;;;;0.05;0.05;;;;;;;;;;5052100;28;20916;-74
2022/09/28 04:01:22;;;;;;;0.20;0.20;;;;;;;;;;5058545;28;20428;-74
2022/09/28 04:03:54;;;;;;;0.10;0.10;;;;;;;;;;5059719;28;20420;-74
2022/09/28 04:06:20;;;;;;;0.10;0.10;;;;;;;;;;5051381;28;20442;-74
2022/09/28 04:08:46;;;;;;;0.10;0.10;;;;;;;;;;5042232;28;20469;-74
2022/09/28 04:11:12;;;;;;;0.10;0.10;;;;;;;;;;5055304;28;20435;-74
2022/09/28 04:13:38;;;;;;;0.10;0.10;;;;;;;;;;5057644;28;20423;-74
2022/09/28 04:16:04;;;;;;;0.30;0.30;;;;;;;;;;5037874;28;20922;-74
2022/09/28 04:18:31;;;;;;;0.10;0.10;;;;;;;;;;5037431;28;21433;-75
2022/09/28 04:21:05;;;;;;;0.40;0.40;;;;;;;;;;5043669;28;20419;-74
2022/09/28 04:23:32;;;;;;;0.30;0.30;;;;;;;;;;5048885;28;20435;-74
2022/09/28 04:25:58;;;;;;;0.10;0.10;;;;;;;;;;5055250;28;20443;-76
2022/09/28 04:31:14;;;;;;;0.00;0.00;;;;;;;;;;5046658;28;20936;-80
2022/09/28 04:33:40;;;;;;;0.10;0.10;;;;;;;;;;5044157;28;20990;-83
2022/09/28 04:36:08;;;;;;;0.00;0.00;;;;;;;;;;5036906;28;20826;-82
2022/09/28 04:38:34;;;;;;;0.10;0.10;;;;;;;;;;5041820;28;20428;-82
2022/09/28 04:41:00;;;;;;;0.00;0.00;;;;;;;;;;5038610;28;20429;-82
2022/09/28 04:43:27;;;;;;;0.10;0.10;;;;;;;;;;5039296;28;20432;-82
2022/09/28 04:45:58;;;;;;;0.10;0.10;;;;;;;;;;5036268;28;21837;-80
2022/09/28 04:48:24;;;;;;;0.00;0.00;;;;;;;;;;5047326;28;20440;-82
2022/09/28 04:50:57;;;;;;;0.10;0.10;;;;;;;;;;5035291;28;20431;-82
2022/09/28 04:53:24;;;;;;;0.00;0.00;;;;;;;;;;5042345;28;20594;-82
2022/09/28 04:55:57;;;;;;;0.10;0.10;;;;;;;;;;5044510;28;20525;-80
2022/09/28 04:58:23;;;;;;;0.10;0.10;;;;;;;;;;5060725;28;20775;-80
2022/09/28 05:00:50;;;;;;;0.13;0.13;;;;;;;;;;5047626;28;20419;-80
2022/09/28 05:03:16;;;;;;;0.10;0.10;;;;;;;;;;5059598;28;20481;-75
2022/09/28 05:05:43;;;;;;;0.10;0.10;;;;;;;;;;5049520;28;20482;-79
2022/09/28 05:08:10;;;;;;;0.10;0.10;;;;;;;;;;5063624;28;20436;-80
2022/09/28 05:10:39;;;;;;;0.10;0.10;;;;;;;;;;5027904;28;20784;-80
2022/09/28 05:13:05;;;;;;;0.10;0.10;;;;;;;;;;5049533;28;20429;-80
2022/09/28 05:15:31;;;;;;;0.00;0.00;;;;;;;;;;5017923;28;20427;-79
2022/09/28 05:17:57;;;;;;;0.10;0.10;;;;;;;;;;5043247;28;20899;-79
2022/09/28 05:20:23;;;;;;;0.10;0.10;;;;;;;;;;5041726;28;20516;-80
2022/09/28 05:22:49;;;;;;;0.10;0.10;;;;;;;;;;5046211;28;20773;-80
2022/09/28 05:25:15;;;;;;;0.10;0.10;;;;;;;;;;5052140;28;20908;-80
2022/09/28 05:27:41;;;;;;;0.00;0.00;;;;;;;;;;5048384;28;20431;-79
2022/09/28 05:30:09;;;;;;;0.10;0.10;;;;;;;;;;5057794;28;20431;-80
2022/09/28 05:32:39;;;;;;;0.10;0.10;;;;;;;;;;5019427;28;20442;-80
2022/09/28 05:35:05;;;;;;;0.32;0.32;;;;;;;;;;5047339;28;20438;-80
2022/09/28 05:37:31;;;;;;;0.10;0.10;;;;;;;;;;5021335;28;20452;-79
2022/09/28 05:39:57;;;;;;;0.20;0.20;;;;;;;;;;5042521;28;20907;-79
2022/09/28 05:42:23;;;;;;;0.10;0.10;;;;;;;;;;5051844;28;20473;-80
2022/09/28 05:44:49;;;;;;;0.10;0.10;;;;;;;;;;5057798;28;20419;-79
2022/09/28 05:47:15;;;;;;;0.00;0.00;;;;;;;;;;5029885;28;20439;-80
2022/09/28 05:49:41;;;;;;;0.10;0.10;;;;;;;;;;5044597;28;20505;-80
2022/09/28 05:52:07;;;;;;;0.00;0.00;;;;;;;;;;5032763;28;20437;-82
2022/09/28 05:54:33;;;;;;;0.00;0.00;;;;;;;;;;5033566;28;20786;-80
2022/09/28 05:56:59;;;;;;;0.10;0.10;;;;;;;;;;5053986;28;20967;-79
2022/09/28 05:59:25;;;;;;;0.10;0.10;;;;;;;;;;5030051;28;20914;-77
2022/09/28 06:01:51;;;;;;;0.10;0.10;;;;;;;;;;5051236;28;20492;-80
2022/09/28 06:04:17;;;;;;;0.08;0.08;;;;;;;;;;5036105;28;20461;-79
2022/09/28 06:06:44;;;;;;;0.15;0.15;;;;;;;;;;5042469;28;20910;-80
2022/09/28 06:09:10;;;;;;;0.10;0.10;;;;;;;;;;5036756;28;20433;-79
2022/09/28 06:11:36;;;;;;;0.00;0.00;;;;;;;;;;5040745;28;20507;-80
2022/09/28 06:14:03;;;;;;;0.20;0.20;;;;;;;;;;5026329;28;20433;-81
2022/09/28 06:16:29;;;;;;;0.10;0.10;;;;;;;;;;5062384;28;20915;-80
2022/09/28 06:18:56;;;;;;;0.10;0.10;;;;;;;;;;5062381;28;20429;-80
2022/09/28 06:21:22;;;;;;;0.00;0.00;;;;;;;;;;5045857;28;20927;-80
2022/09/28 06:23:48;;;;;;;0.10;0.10;;;;;;;;;;5050843;28;20907;-80
2022/09/28 06:26:14;;;;;;;0.40;0.40;;;;;;;;;;5014740;28;20837;-80
2022/09/28 06:28:40;;;;;;;0.20;0.20;;;;;;;;;;5033630;28;20796;-81
2022/09/28 06:31:06;;;;;;;0.10;0.10;;;;;;;;;;5055579;28;20438;-79
2022/09/28 06:33:32;;;;;;;0.10;0.10;;;;;;;;;;5013655;28;20511;-80
2022/09/28 06:35:58;;;;;;;0.10;0.10;;;;;;;;;;5037722;28;20429;-80
2022/09/28 06:38:24;;;;;;;0.10;0.10;;;;;;;;;;5014725;28;20491;-79
2022/09/28 06:40:51;;;;;;;0.10;0.10;;;;;;;;;;5039146;28;20433;-79
2022/09/28 06:43:17;;;;;;;0.10;0.10;;;;;;;;;;5038177;28;20435;-82
2022/09/28 06:45:44;;;;;;;0.10;0.10;;;;;;;;;;5047086;28;20472;-81
2022/09/28 06:48:10;;;;;;;1.90;0.43;;;;;;;;;;5017797;28;20879;-82
2022/09/28 06:50:39;;;;;;;0.10;0.10;;;;;;;;;;5053131;28;20818;-82
2022/09/28 06:53:06;;;;;;;0.10;0.10;;;;;;;;;;5023485;28;20501;-82
2022/09/28 06:55:32;;;;;;;0.35;0.35;;;;;;;;;;5066901;28;20481;-80
2022/09/28 06:58:02;;;;;;;1.20;0.50;;;;;;;;;;5027789;28;20447;-80
2022/09/28 07:00:31;;;;;;;0.03;0.03;;;;;;;;;;5029372;28;20459;-80
2022/09/28 07:02:57;;;;;;;0.10;0.10;;;;;;;;;;5028182;28;20429;-83
2022/09/28 07:05:26;;;;;;;0.10;0.10;;;;;;;;;;5041909;28;20443;-79
2022/09/28 07:07:58;;;;;;;0.10;0.10;;;;;;;;;;5019317;28;20451;-77
2022/09/28 07:10:26;;;;;;;0.10;0.10;;;;;;;;;;5047713;28;20429;-81
2022/09/28 07:12:52;;;;;;;0.08;0.08;;;;;;;;;;5030122;28;20440;-81
2022/09/28 07:15:19;;;;;;;0.10;0.10;;;;;;;;;;5026832;28;20540;-81
2022/09/28 07:17:45;;;;;;;0.20;0.20;;;;;;;;;;5051681;28;21001;-84
2022/09/28 07:20:12;;;;;;;0.10;0.10;;;;;;;;;;5017133;28;20844;-81
2022/09/28 07:22:38;;;;;;;0.10;0.10;;;;;;;;;;5044158;28;20513;-76
2022/09/28 07:25:04;;;;;;;0.10;0.10;;;;;;;;;;5046391;28;20431;-82
2022/09/28 07:27:30;;;;;;;0.00;0.00;;;;;;;;;;5004318;28;20423;-79
2022/09/28 07:29:57;;;;;;;0.50;0.50;;;;;;;;;;5051145;28;20461;-78
2022/09/28 07:32:24;;;;;;;0.00;0.00;;;;;;;;;;5038791;28;20433;-79
2022/09/28 07:34:51;;;;;;;0.20;0.10;;;;;;;;;;5029890;28;21038;-79
2022/09/28 07:37:17;;;;;;;0.10;0.10;;;;;;;;;;5031295;28;20992;-79
2022/09/28 07:42:29;;;;;;;0.10;0.10;;;;;;;;;;5017696;28;20419;-79
2022/09/28 07:44:55;;;;;;;0.20;0.20;;;;;;;;;;5031660;28;20442;-79
2022/09/28 07:47:28;;;;;;;0.20;0.20;;;;;;;;;;5028476;28;20431;-79
2022/09/28 07:49:55;;;;;;;0.10;0.10;;;;;;;;;;5019873;28;20909;-80
2022/09/28 07:52:25;;;;;;;0.10;0.10;;;;;;;;;;5022528;28;20450;-80
2022/09/28 07:54:57;;;;;;;0.00;0.00;;;;;;;;;;5015400;28;20448;-79
2022/09/28 07:57:23;;;;;;;0.10;0.10;;;;;;;;;;5030690;28;20522;-79
2022/09/28 07:59:52;;;;;;;0.40;0.40;;;;;;;;;;5021960;28;20951;-79
2022/09/28 08:02:21;;;;;;;0.10;0.10;;;;;;;;;;5043270;28;20522;-79
2022/09/28 08:04:48;;;;;;;0.10;0.10;;;;;;;;;;5041808;28;20789;-79
2022/09/28 08:07:14;;;;;;;0.10;0.10;;;;;;;;;;5021842;28;20562;-80
2022/09/28 08:09:41;;;;;;;0.10;0.10;;;;;;;;;;5031321;28;20419;-80
2022/09/28 08:12:07;;;;;;;0.10;0.10;;;;;;;;;;5030854;28;20436;-80
2022/09/28 08:14:34;;;;;;;0.10;0.10;;;;;;;;;;5034562;28;20430;-80
2022/09/28 08:17:00;;;;;;;0.10;0.10;;;;;;;;;;5025419;28;20431;-80
2022/09/28 08:21:43;;;;;;;0.10;0.10;;;;;;;;;;5047651;28;20431;-80
2022/09/28 08:22:12;;;;;;;0.10;0.10;;;;;;;;;;5021257;28;20447;-81
2022/09/28 08:24:38;;;;;;;0.10;0.10;;;;;;;;;;5022500;28;20428;-80
2022/09/28 08:27:04;;;;;;;0.10;0.10;;;;;;;;;;5022163;28;20434;-80
2022/09/28 08:29:31;;;;;;;0.10;0.10;;;;;;;;;;5027536;28;20430;-81
2022/09/28 08:31:58;;;;;;;0.10;0.10;;;;;;;;;;5025262;28;20463;-81
2022/09/28 08:34:26;;;;;;;0.10;0.10;;;;;;;;;;5026501;28;20427;-80
2022/09/28 08:36:52;;;;;;;0.10;0.10;;;;;;;;;;5026699;28;20437;-81
2022/09/28 08:39:18;;;;;;;0.10;0.10;;;;;;;;;;5014912;28;20455;-81
2022/09/28 08:41:48;;;;;;;0.10;0.10;;;;;;;;;;5014196;28;20922;-81
2022/09/28 08:44:22;;;;;;;0.10;0.10;;;;;;;;;;5023618;28;20431;-81
2022/09/28 08:46:51;;;;;;;0.50;0.20;;;;;;;;;;5016016;28;20480;-81
2022/09/28 08:49:34;;;;;;;0.10;0.10;;;;;;;;;;5007443;28;20460;-81
2022/09/28 08:52:16;;;;;;;0.10;0.10;;;;;;;;;;5028631;28;20430;-81
2022/09/28 08:54:44;;;;;;;0.10;0.10;;;;;;;;;;5030989;28;20440;-81
2022/09/28 08:57:10;;;;;;;0.10;0.10;;;;;;;;;;5027768;28;20463;-81
2022/09/28 08:59:43;;;;;;;0.20;0.20;;;;;;;;;;5021648;28;20542;-81
2022/09/28 09:02:32;;;;;;;0.10;0.10;;;;;;;;;;5033665;28;20425;-76
2022/09/28 09:04:58;;;;;;;0.10;0.10;;;;;;;;;;5042828;28;20425;-83
2022/09/28 09:07:43;;;;;;;0.00;0.00;;;;;;;;;;5033050;28;20421;-83
2022/09/28 09:10:09;;;;;;;0.10;0.10;;;;;;;;;;5022618;28;20429;-84
2022/09/28 09:12:57;;;;;;;0.10;0.10;;;;;;;;;;5037893;28;20483;-83
2022/09/28 09:15:27;;;;;;;0.10;0.10;;;;;;;;;;5031479;28;20438;-83
2022/09/28 09:18:16;;;;;;;0.10;0.10;;;;;;;;;;5031332;28;21738;-83
2022/09/28 09:20:45;;;;;;;0.10;0.10;;;;;;;;;;5007144;28;20443;-83
2022/09/28 09:23:30;;;;;;;0.20;0.20;;;;;;;;;;5020128;28;20433;-82
2022/09/28 09:26:13;;;;;;;0.10;0.10;;;;;;;;;;5026100;28;20435;-83
2022/09/28 09:28:48;;;;;;;0.10;0.10;;;;;;;;;;5033753;28;20429;-83
2022/09/28 09:31:23;;;;;;;0.60;0.20;;;;;;;;;;5014091;28;20426;-82
2022/09/28 09:34:08;;;;;;;0.10;0.10;;;;;;;;;;5011611;28;20435;-83
2022/09/28 09:36:34;;;;;;;0.00;0.00;;;;;;;;;;5033347;28;20460;-82
2022/09/28 09:39:19;;;;;;;0.10;0.10;;;;;;;;;;5028718;28;20442;-82
2022/09/28 09:41:51;;;;;;;0.10;0.10;;;;;;;;;;5022477;28;20440;-80
2022/09/28 09:44:29;;;;;;;0.10;0.10;;;;;;;;;;5026716;28;20447;-81
2022/09/28 09:47:03;;;;;;;0.10;0.10;;;;;;;;;;5039922;28;20467;-82
2022/09/28 09:49:29;;;;;;;;;;;;;;;;;;5019389;28;20068;-82
2022/09/28 09:51:55;;;;;;;;;;;;;;;;;;5041253;28;20356;-82
2022/09/28 09:54:21;;;;;;;;;;;;;;;;;;5024196;28;20334;-82
2022/09/28 09:56:47;;;;;;;;;;;;;;;;;;5041365;28;19921;-82
2022/09/28 09:59:13;;;;;;;;;;;;;;;;;;5029199;28;20291;-81
2022/09/28 10:01:40;;;;;;;0.10;0.10;;;;;;;;;;5032833;28;20299;-84
2022/09/28 10:04:12;;;;;;;0.05;0.05;;;;;;;;;;5026983;28;20053;-82
2022/09/28 10:06:38;;;;;;;0.00;0.00;;;;;;;;;;5011236;28;20050;-82
2022/09/28 10:09:06;;;;;;;0.10;0.10;;;;;;;;;;5025159;28;20125;-82
2022/09/28 10:11:36;;;;;;;0.10;0.10;;;;;;;;;;5028500;28;20038;-82
2022/09/28 10:14:04;;;;;;;0.10;0.10;;;;;;;;;;5035014;28;20048;-82
2022/09/28 10:16:31;;;;;;;0.10;0.10;;;;;;;;;;5029042;28;20057;-79
2022/09/28 10:18:58;;;;;;;0.10;0.10;;;;;;;;;;5026953;28;20045;-81
2022/09/28 10:21:24;;;;;;;0.10;0.10;;;;;;;;;;5020359;28;20127;-83
2022/09/28 10:23:55;;;;;;;0.10;0.10;;;;;;;;;;5023698;28;20048;-86
2022/09/28 10:26:32;;;;;;;0.10;0.10;;;;;;;;;;5035500;28;20080;-83
2022/09/28 10:29:02;;;;;;;0.10;0.10;;;;;;;;;;5031435;28;20456;-80
2022/09/28 10:31:35;;;;;;;0.10;0.10;;;;;;;;;;5026669;28;20481;-81
2022/09/28 10:34:03;;;;;;;0.10;0.10;;;;;;;;;;5021472;28;20161;-82
2022/09/28 10:36:37;;;;;;;0.10;0.10;;;;;;;;;;5029692;28;20050;-81
2022/09/28 10:39:03;;;;;;;0.10;0.10;;;;;;;;;;5030771;28;20052;-81
2022/09/28 10:41:30;;;;;;;0.10;0.10;;;;;;;;;;5013232;28;20115;-81
2022/09/28 10:44:07;;;;;;;0.10;0.10;;;;;;;;;;5031392;28;20494;-83
2022/09/28 10:46:34;;;;;;;0.10;0.10;;;;;;;;;;5030141;28;20076;-82
2022/09/28 10:49:01;;;;;;;0.10;0.10;;;;;;;;;;5019904;28;20592;-82
2022/09/28 10:51:43;;;;;;;0.10;0.10;;;;;;;;;;5028698;28;20038;-84
2022/09/28 10:54:20;;;;;;;0.00;0.00;;;;;;;;;;5046132;28;20481;-82
2022/09/28 10:56:47;;;;;;;0.10;0.10;;;;;;;;;;5023134;28;20052;-81
2022/09/28 10:59:23;;;;;;;0.10;0.10;;;;;;;;;;5022446;28;20077;-82
2022/09/28 11:01:56;;;;;;;0.10;0.10;;;;;;;;;;5027787;28;20057;-84
2022/09/28 11:04:25;;;;;;;0.10;0.10;;;;;;;;;;5015784;28;20042;-84
2022/09/28 11:06:52;;;;;;;0.10;0.10;;;;;;;;;;5015573;28;20056;-81
2022/09/28 11:09:38;;;;;;;0.10;0.10;;;;;;;;;;5027939;28;20072;-81
2022/09/28 11:12:05;;;;;;;0.10;0.10;;;;;;;;;;5027981;28;20091;-82
2022/09/28 11:14:36;;;;;;;0.10;0.10;;;;;;;;;;5030925;28;20500;-81
2022/09/28 11:17:16;;;;;;;0.10;0.10;;;;;;;;;;5024822;28;20505;-82
2022/09/28 11:19:42;;;;;;;0.10;0.10;;;;;;;;;;5035127;28;20052;-82
2022/09/28 11:22:30;;;;;;;0.10;0.10;;;;;;;;;;5042928;28;20111;-81
2022/09/28 11:25:14;;;;;;;0.10;0.10;;;;;;;;;;5019518;28;20096;-81
2022/09/28 11:27:40;;;;;;;0.10;0.10;;;;;;;;;;5024614;28;20056;-82
2022/09/28 11:30:20;;;;;;;0.10;0.10;;;;;;;;;;5014760;28;20050;-83
2022/09/28 11:32:46;;;;;;;0.10;0.10;;;;;;;;;;5035270;28;20057;-84
2022/09/28 11:35:18;;;;;;;0.10;0.10;;;;;;;;;;5013633;28;20045;-83
2022/09/28 11:37:56;;;;;;;0.10;0.10;;;;;;;;;;5021079;28;20061;-84
2022/09/28 11:40:22;;;;;;;0.10;0.10;;;;;;;;;;5029152;28;20111;-87
2022/09/28 11:42:58;;;;;;;0.10;0.10;;;;;;;;;;5027742;28;20058;-82
2022/09/28 11:45:32;;;;;;;0.10;0.10;;;;;;;;;;5022767;28;20485;-83
2022/09/28 11:48:05;;;;;;;0.10;0.10;;;;;;;;;;5016294;28;20403;-84
2022/09/28 11:50:31;;;;;;;;;;;;;;;;;;5007394;28;20085;-84
2022/09/28 11:53:10;;;;;;;0.10;0.10;;;;;;;;;;5013676;28;19956;-85
2022/09/28 11:55:40;;;;;;;0.10;0.10;;;;;;;;;;5026669;28;20052;-81
2022/09/28 11:58:17;;;;;;;0.10;0.10;;;;;;;;;;5011375;28;20045;-81
2022/09/28 12:00:45;;;;;;;0.00;0.00;;;;;;;;;;5025572;28;20387;-80
2022/09/28 12:03:21;;;;;;;0.10;0.10;;;;;;;;;;5014523;28;20099;-77
2022/09/28 12:05:50;;;;;;;0.05;0.05;;;;;;;;;;5025630;28;20061;-77
2022/09/28 12:08:26;;;;;;;0.10;0.10;;;;;;;;;;5029554;28;20063;-82
2022/09/28 12:10:59;;;;;;;0.00;0.00;;;;;;;;;;5029947;28;20059;-80
2022/09/28 12:13:46;;;;;;;0.10;0.10;;;;;;;;;;5043958;28;20084;-80
2022/09/28 12:16:15;;;;;;;0.10;0.10;;;;;;;;;;5013432;28;20481;-81
2022/09/28 12:18:45;;;;;;;0.10;0.10;;;;;;;;;;4996864;28;20488;-81
2022/09/28 12:21:31;;;;;;;0.10;0.10;;;;;;;;;;5017287;28;20041;-81
2022/09/28 12:24:12;;;;;;;0.10;0.10;;;;;;;;;;5016679;28;20058;-83
2022/09/28 12:26:48;;;;;;;0.10;0.10;;;;;;;;;;5033541;28;20136;-85
2022/09/28 12:29:17;;;;;;;0.10;0.10;;;;;;;;;;5024666;28;20053;-84
2022/09/28 12:31:50;;;;;;;0.10;0.10;;;;;;;;;;5019627;28;20485;-84
2022/09/28 12:34:16;;;;;;;0.00;0.00;;;;;;;;;;5026997;28;20420;-83
2022/09/28 12:36:42;;;;;;;0.10;0.10;;;;;;;;;;5012765;28;20743;-82
2022/09/28 12:39:22;;;;;;;0.10;0.10;;;;;;;;;;5013487;28;20041;-82
2022/09/28 12:41:51;;;;;;;0.00;0.00;;;;;;;;;;5045981;28;20058;-80
2022/09/28 12:44:31;;;;;;;0.10;0.10;;;;;;;;;;5018374;28;20099;-82
2022/09/28 12:47:15;;;;;;;0.10;0.10;;;;;;;;;;5016361;28;20481;-80
2022/09/28 12:49:48;;;;;;;0.10;0.10;;;;;;;;;;5048405;28;20041;-82
2022/09/28 12:52:32;;;;;;;0.00;0.00;;;;;;;;;;5057057;28;20056;-81
2022/09/28 12:55:06;;;;;;;0.10;0.10;;;;;;;;;;5058740;28;20503;-82
2022/09/28 12:57:37;;;;;;;0.10;0.10;;;;;;;;;;5033344;28;20084;-81
2022/09/28 13:00:14;;;;;;;0.10;0.10;;;;;;;;;;5016140;28;20313;-81
2022/09/28 13:02:46;;;;;;;0.10;0.10;;;;;;;;;;5059277;28;20049;-79
2022/09/28 13:05:18;;;;;;;0.10;0.10;;;;;;;;;;5062259;28;20168;-80
2022/09/28 13:07:48;;;;;;;0.10;0.10;;;;;;;;;;5029109;28;20057;-81
2022/09/28 13:10:17;;;;;;;0.00;0.00;;;;;;;;;;5038001;28;20110;-81
2022/09/28 13:13:06;;;;;;;0.10;0.10;;;;;;;;;;5016082;28;20052;-81
2022/09/28 13:15:51;;;;;;;0.10;0.10;;;;;;;;;;5031133;28;20041;-81
2022/09/28 13:18:26;;;;;;;0.10;0.10;;;;;;;;;;5032396;28;20085;-84
2022/09/28 13:20:52;;;;;;;0.10;0.10;;;;;;;;;;5038833;28;20049;-82
2022/09/28 13:23:23;;;;;;;0.10;0.10;;;;;;;;;;5014734;28;20128;-81
2022/09/28 13:25:56;;;;;;;0.00;0.00;;;;;;;;;;5030451;28;20519;-83
2022/09/28 13:28:24;;;;;;;0.10;0.10;;;;;;;;;;5018648;28;20041;-81
2022/09/28 13:30:51;;;;;;;0.00;0.00;;;;;;;;;;5049642;28;21533;-83
2022/09/28 13:33:29;;;;;;;0.00;0.00;;;;;;;;;;5020016;28;20132;-83
2022/09/28 13:35:55;;;;;;;0.00;0.00;;;;;;;;;;5015650;28;20045;-82
2022/09/28 13:38:21;;;;;;;0.15;0.15;;;;;;;;;;5015548;28;20045;-83
2022/09/28 13:41:03;;;;;;;0.10;0.10;;;;;;;;;;5032728;28;20107;-83
2022/09/28 13:43:48;;;;;;;0.00;0.00;;;;;;;;;;5019466;28;20566;-87
2022/09/28 13:46:27;;;;;;;0.00;0.00;;;;;;;;;;5015571;28;20112;-81
2022/09/28 13:48:59;;;;;;;0.00;0.00;;;;;;;;;;5014777;28;20053;-82
2022/09/28 13:51:28;;;;;;;0.10;0.10;;;;;;;;;;5014780;28;20045;-83
2022/09/28 13:54:02;;;;;;;0.10;0.10;;;;;;;;;;5021966;28;20051;-82
2022/09/28 13:56:48;;;;;;;0.00;0.00;;;;;;;;;;5047878;28;20427;-80
2022/09/28 13:59:29;;;;;;;0.00;0.00;;;;;;;;;;5014932;28;20053;-81
2022/09/28 14:02:02;;;;;;;0.10;0.10;;;;;;;;;;5048343;28;20049;-80
2022/09/28 14:04:48;;;;;;;0.08;0.08;;;;;;;;;;5052490;28;20046;-80
2022/09/28 14:07:15;;;;;;;4.03;1.48;;;;;;;;;;5022044;28;20111;-83
2022/09/28 14:09:44;;;;;;;0.10;0.10;;;;;;;;;;5048019;28;20045;-83
2022/09/28 14:12:30;;;;;;;0.00;0.00;;;;;;;;;;5032096;28;20056;-81
2022/09/28 14:14:56;;;;;;;0.10;0.10;;;;;;;;;;5039131;28;20107;-81
2022/09/28 14:17:22;;;;;;;0.10;0.10;;;;;;;;;;5032168;28;20081;-82
2022/09/28 14:19:51;;;;;;;0.10;0.10;;;;;;;;;;5047958;28;20081;-82
2022/09/28 14:22:17;;;;;;;0.10;0.10;;;;;;;;;;5014098;28;20620;-82
2022/09/28 14:25:02;;;;;;;0.10;0.10;;;;;;;;;;5049410;28;20050;-82
2022/09/28 14:27:28;;;;;;;0.00;0.00;;;;;;;;;;5048237;28;20081;-82
2022/09/28 14:30:05;;;;;;;0.10;0.10;;;;;;;;;;5020508;28;20135;-82
2022/09/28 14:32:35;;;;;;;0.00;0.00;;;;;;;;;;5031490;28;20057;-82
2022/09/28 14:35:04;;;;;;;0.10;0.10;;;;;;;;;;5039226;28;20396;-81
2022/09/28 14:43:30;;;;;;;0.10;0.10;;;;;;;;;;5030683;28;20511;-81
2022/09/28 14:48:51;;;;;;;0.00;0.00;;;;;;;;;;5014444;28;20132;-81
2022/09/28 14:51:28;;;;;;;0.10;0.10;;;;;;;;;;5032363;28;20049;-82
2022/09/28 14:54:04;;;;;;;0.10;0.10;;;;;;;;;;5014308;28;20551;-81
2022/09/28 14:56:32;;;;;;;0.10;0.10;;;;;;;;;;5040656;28;20049;-82
2022/09/28 14:58:59;;;;;;;0.10;0.10;;;;;;;;;;5032284;28;20049;-82
2022/09/28 15:01:25;;;;;;;0.10;0.10;;;;;;;;;;5015718;28;20136;-81
2022/09/28 15:03:54;;;;;;;0.10;0.10;;;;;;;;;;5035619;28;20056;-82
2022/09/28 15:06:23;;;;;;;0.10;0.10;;;;;;;;;;5021875;28;20052;-82
2022/09/28 15:08:50;;;;;;;0.00;0.00;;;;;;;;;;5026228;28;20084;-82
2022/09/28 15:11:23;;;;;;;0.10;0.10;;;;;;;;;;5033263;28;20053;-82
2022/09/28 15:13:52;;;;;;;;;;;;;;;;;;5044213;28;20495;-82
2022/09/28 15:16:22;;;;;;;0.10;0.10;;;;;;;;;;5018912;28;19921;-82
2022/09/28 15:18:54;;;;;;;0.00;0.00;;;;;;;;;;5023037;28;20065;-83
2022/09/28 15:21:21;;;;;;;0.10;0.10;;;;;;;;;;5018433;28;20045;-82